Terminal Aerodrome Forecast
Issued by NWS

Home | Current Version | Previous Version | Text Only | Print | Product List | Glossary On
Versions: 1 2 3 4 5 6 7 8 9 10 11 12 13
000
FTUS41 KCAR 061753
TAFHUL
TAF
KHUL 061753Z 0618/0718 30012G19KT P6SM FEW250
     FM070000 30008KT P6SM SCT110
     FM071200 32012G20KT P6SM SCT080=

USA.gov is the U.S. government's official web portal to all federal, state and local government web resources and services.